createdAt,value
2023-03-23T06:02:58.804Z,13.29
2023-03-23T06:05:36.807Z,13.29
2023-03-23T06:08:08.487Z,13.30
2023-03-23T06:10:44.865Z,13.28
2023-03-23T06:13:15.508Z,13.26
2023-03-23T06:15:51.842Z,13.23
2023-03-23T06:18:24.809Z,13.19
2023-03-23T06:21:01.989Z,13.11
2023-03-23T06:23:32.335Z,13.11
2023-03-23T06:26:12.910Z,13.06
2023-03-23T06:28:42.971Z,13.11
2023-03-23T06:31:19.902Z,13.12
2023-03-23T06:33:58.856Z,13.08
2023-03-23T06:36:29.733Z,13.11
2023-03-23T06:39:06.984Z,13.14
2023-03-23T06:41:37.841Z,13.15
2023-03-23T06:44:15.897Z,13.14
2023-03-23T06:46:46.760Z,13.15
2023-03-23T06:49:25.934Z,13.14
2023-03-23T06:52:03.936Z,13.19
2023-03-23T06:54:34.150Z,13.19
2023-03-23T06:57:10.944Z,13.23
2023-03-23T06:59:41.200Z,13.26
2023-03-23T07:02:20.140Z,13.29
2023-03-23T07:04:52.903Z,13.31
2023-03-23T07:07:29.941Z,13.30
2023-03-23T07:10:00.270Z,13.32
2023-03-23T07:12:36.929Z,13.32
2023-03-23T07:15:09.190Z,13.35
2023-03-23T07:17:45.928Z,13.43
2023-03-23T07:20:19.151Z,13.50
2023-03-23T07:22:56.034Z,13.54
2023-03-23T07:25:32.970Z,13.55
2023-03-23T07:28:03.572Z,13.58
2023-03-23T07:30:40.961Z,13.58
2023-03-23T07:33:13.266Z,13.53
2023-03-23T07:35:52.976Z,13.54
2023-03-23T07:38:23.729Z,13.54
2023-03-23T07:41:00.981Z,13.55
2023-03-23T07:43:31.543Z,13.61
2023-03-23T07:46:07.962Z,13.71
2023-03-23T07:48:38.963Z,13.76
2023-03-23T07:51:17.995Z,13.75
2023-03-23T07:53:48.480Z,13.75
2023-03-23T07:56:26.966Z,13.80
2023-03-23T07:59:04.003Z,13.93
2023-03-23T08:01:34.239Z,14.00
2023-03-23T08:04:10.996Z,14.05
2023-03-23T08:06:43.826Z,14.11
2023-03-23T08:09:21.045Z,14.18
2023-03-23T08:11:51.719Z,14.17
2023-03-23T08:14:28.046Z,14.26
2023-03-23T08:16:59.878Z,14.26
2023-03-23T08:19:37.111Z,14.22
2023-03-23T08:22:17.033Z,14.31
2023-03-23T08:24:47.228Z,14.80
2023-03-23T08:27:24.082Z,15.03
2023-03-23T08:30:01.043Z,15.09
2023-03-23T08:32:31.186Z,15.06
2023-03-23T08:35:11.004Z,15.12
2023-03-23T08:37:45.258Z,15.67
2023-03-23T08:40:27.092Z,16.03
2023-03-23T08:43:04.024Z,16.48
2023-03-23T08:45:34.639Z,17.19
2023-03-23T08:48:11.023Z,17.59
2023-03-23T08:50:49.082Z,18.00
2023-03-23T08:53:22.381Z,18.22
2023-03-23T08:55:59.151Z,18.39
2023-03-23T08:58:32.468Z,18.46
2023-03-23T09:01:09.139Z,18.79
2023-03-23T09:03:48.131Z,19.31
2023-03-23T09:06:18.516Z,19.39
2023-03-23T09:08:58.061Z,19.80
2023-03-23T09:11:35.068Z,20.16
2023-03-23T09:14:13.114Z,20.44
2023-03-23T09:16:43.936Z,20.19
2023-03-23T09:19:21.206Z,19.76
2023-03-23T09:21:58.077Z,20.00
2023-03-23T09:24:31.298Z,20.33
2023-03-23T09:27:09.110Z,20.42
2023-03-23T09:29:46.086Z,20.54
2023-03-23T09:32:23.143Z,20.71
2023-03-23T09:35:03.225Z,20.72
2023-03-23T09:37:42.139Z,21.16
2023-03-23T09:40:20.856Z,21.19
2023-03-23T09:43:16.120Z,20.91
2023-03-23T09:45:59.814Z,20.57
2023-03-23T09:49:00.165Z,20.05
2023-03-23T09:51:44.298Z,19.89
2023-03-23T09:54:30.241Z,19.85
2023-03-23T09:57:04.930Z,20.15
2023-03-23T09:59:49.417Z,20.45
2023-03-23T10:02:35.997Z,20.26
2023-03-23T10:05:36.113Z,20.40
2023-03-23T10:08:21.179Z,20.79
2023-03-23T10:11:08.161Z,20.71
2023-03-23T10:14:08.760Z,21.16
2023-03-23T10:16:51.191Z,21.56
2023-03-23T10:19:31.939Z,21.69
2023-03-23T10:22:16.197Z,21.70
2023-03-23T10:24:53.818Z,22.00
2023-03-23T10:27:40.276Z,22.07
2023-03-23T10:30:24.019Z,22.12
2023-03-23T10:33:06.469Z,21.93
2023-03-23T10:35:44.364Z,21.74
2023-03-23T10:38:26.240Z,21.53
2023-03-23T10:41:06.399Z,21.62
2023-03-23T10:43:43.298Z,21.97
2023-03-23T10:46:34.723Z,21.89
2023-03-23T10:49:19.251Z,21.66
2023-03-23T10:52:03.603Z,21.66
2023-03-23T10:54:51.219Z,21.61
2023-03-23T10:57:29.780Z,21.81
2023-03-23T11:00:16.281Z,21.95
2023-03-23T11:03:07.229Z,22.22
2023-03-23T11:05:42.214Z,22.39
2023-03-23T11:08:24.854Z,22.62
2023-03-23T11:10:58.822Z,22.89
2023-03-23T11:13:42.264Z,22.85
2023-03-23T11:16:13.567Z,22.92
2023-03-23T11:18:54.238Z,22.49
2023-03-23T11:21:27.233Z,22.40
2023-03-23T11:24:10.385Z,22.47
2023-03-23T11:26:50.287Z,22.57
2023-03-23T11:29:36.291Z,22.59
2023-03-23T11:32:17.281Z,22.33
2023-03-23T11:34:55.525Z,21.82
2023-03-23T11:37:40.328Z,21.21
2023-03-23T11:40:28.296Z,20.88
2023-03-23T11:43:11.278Z,20.47
2023-03-23T11:45:49.994Z,20.20
2023-03-23T11:48:37.318Z,19.98
2023-03-23T11:51:22.435Z,19.61
2023-03-23T11:54:04.143Z,19.67
2023-03-23T11:56:46.293Z,19.61
2023-03-23T11:59:21.569Z,19.50
2023-03-23T12:02:14.988Z,19.59
2023-03-23T12:05:11.658Z,19.80
2023-03-23T12:08:08.345Z,20.18
2023-03-23T12:14:00.318Z,21.00
2023-03-23T12:16:51.375Z,21.28
2023-03-23T12:19:37.490Z,21.42
2023-03-23T12:22:41.369Z,21.48
2023-03-23T12:25:49.397Z,21.55
2023-03-23T12:28:36.645Z,21.36
2023-03-23T12:31:24.338Z,21.28
2023-03-23T12:34:03.047Z,21.10
2023-03-23T12:36:57.490Z,21.04
2023-03-23T12:39:57.200Z,21.00
2023-03-23T12:42:50.357Z,21.04
2023-03-23T12:45:35.352Z,20.90
2023-03-23T12:48:11.155Z,20.74
2023-03-23T12:50:54.660Z,20.60
2023-03-23T12:53:32.490Z,20.32
2023-03-23T12:56:23.439Z,20.19
2023-03-23T12:59:17.865Z,20.05
2023-03-23T13:01:59.374Z,20.09
2023-03-23T13:04:37.286Z,20.08
2023-03-23T13:07:20.457Z,20.08
2023-03-23T13:10:05.349Z,20.21
2023-03-23T13:12:40.369Z,20.31
2023-03-23T13:15:36.512Z,20.21
2023-03-23T13:18:25.449Z,20.24
2023-03-23T13:21:06.564Z,20.05
2023-03-23T13:23:49.486Z,20.02
2023-03-23T13:26:24.797Z,20.08
2023-03-23T13:29:11.456Z,19.94
2023-03-23T13:31:45.829Z,19.97
2023-03-23T13:34:28.470Z,20.04
2023-03-23T13:37:04.095Z,20.12
2023-03-23T13:39:44.449Z,20.15
2023-03-23T13:42:31.511Z,20.18
2023-03-23T13:45:31.507Z,20.20
2023-03-23T13:48:26.278Z,20.10
2023-03-23T13:51:06.466Z,20.09
2023-03-23T13:53:55.461Z,20.07
2023-03-23T13:56:39.895Z,19.89
2023-03-23T13:59:22.465Z,19.80
